KSEE/SEE METAR and TAF weather

Enter ICAO airport designator
Station Type Date Time Source
KSEE METAR 2019/06/20 07:15 UTC NOAA

KSEE 200715Z AUTO VRB03KT 10SM OVC015 18/14 A2998 RMK AO2


Station Type Date Time Source
KSEE Decoded METAR 2019/06/20 07:15 UTC NOAA

San Diego/El Cajon, Gillespie Field Airport, CA, United States (KSEE) 32-49-34N 116-58-20W
Jun 20, 2019 - 03:15 AM EDT / 2019.06.20 0715 UTC
Wind: Variable at 3 MPH (3 KT):0
Visibility: 10 mile(s):0
Sky conditions: overcast
Temperature: 64 F (18 C)
Dew Point: 57 F (14 C)
Relative Humidity: 77%
Pressure (altimeter): 29.98 in. Hg (1015 hPa)
ob: KSEE 200715Z AUTO VRB03KT 10SM OVC015 18/14 A2998 RMK AO2
cycle: 7

Station Type Date Time Source
KSEE TAF UTC NOAA

Error!

Example: see airport list